createdAt,value
2023-12-23T00:02:06.659Z,96422.84
2023-12-23T00:04:33.042Z,96396.13
2023-12-23T00:06:59.435Z,96410.34
2023-12-23T00:09:25.769Z,96410.19
2023-12-23T00:11:52.216Z,96393.28
2023-12-23T00:14:18.749Z,96397.97
2023-12-23T00:16:45.284Z,96398.63
2023-12-23T00:19:11.878Z,96426.59
2023-12-23T00:21:38.354Z,96449.78
2023-12-23T00:24:05.116Z,96454.09
2023-12-23T00:26:31.477Z,96453.13
2023-12-23T00:28:57.811Z,96453.69
2023-12-23T00:31:24.182Z,96450.84
2023-12-23T00:33:51.196Z,96459.25
2023-12-23T00:36:17.713Z,96438.44
2023-12-23T00:38:44.043Z,96457.91
2023-12-23T00:41:10.893Z,96457.25
2023-12-23T00:43:37.297Z,96459.81
2023-12-23T00:46:03.813Z,96455.59
2023-12-23T00:48:30.216Z,96460.50
2023-12-23T00:50:56.583Z,96472.03
2023-12-23T00:53:26.789Z,96474.53
2023-12-23T00:55:53.903Z,96470.72
2023-12-23T00:58:20.316Z,96467.38
2023-12-23T01:00:47.315Z,96477.78
2023-12-23T01:03:13.780Z,96474.13
2023-12-23T01:05:40.179Z,96477.38
2023-12-23T01:08:06.886Z,96476.44
2023-12-23T01:10:33.310Z,96483.00
2023-12-23T01:12:59.664Z,96494.84
2023-12-23T01:15:26.121Z,96499.25
2023-12-23T01:17:52.659Z,96497.53
2023-12-23T01:20:19.513Z,96503.94
2023-12-23T01:22:46.001Z,96484.44
2023-12-23T01:25:12.479Z,96491.50
2023-12-23T01:27:38.815Z,96500.88
2023-12-23T01:30:06.482Z,96507.38
2023-12-23T01:32:32.910Z,96507.06
2023-12-23T01:34:59.335Z,96512.81
2023-12-23T01:37:25.674Z,96517.13
2023-12-23T01:39:52.008Z,96505.06
2023-12-23T01:42:18.374Z,96507.28
2023-12-23T01:44:44.703Z,96501.91
2023-12-23T01:47:11.073Z,96508.88
2023-12-23T01:49:37.986Z,96527.91
2023-12-23T01:52:05.008Z,96542.50
2023-12-23T01:54:31.363Z,96539.16
2023-12-23T01:56:59.420Z,96546.31
2023-12-23T01:59:26.359Z,96547.97
2023-12-23T02:01:52.899Z,96555.88
2023-12-23T02:04:19.662Z,96541.16
2023-12-23T02:06:46.021Z,96545.06
2023-12-23T02:09:12.402Z,96542.91
2023-12-23T02:12:09.326Z,96550.34
2023-12-23T02:15:01.407Z,96565.03
2023-12-23T02:17:27.913Z,96553.88
2023-12-23T02:19:54.297Z,96561.03
2023-12-23T02:22:21.213Z,96551.09
2023-12-23T02:24:47.588Z,96553.38
2023-12-23T02:27:19.300Z,96549.44
2023-12-23T02:29:46.809Z,96548.72
2023-12-23T02:32:14.113Z,96536.38
2023-12-23T02:34:42.235Z,96549.97
2023-12-23T02:37:08.576Z,96552.72
2023-12-23T02:39:34.930Z,96543.66
2023-12-23T02:42:01.507Z,96531.63
2023-12-23T02:44:27.822Z,96525.22
2023-12-23T02:46:54.185Z,96532.38
2023-12-23T02:49:20.539Z,96526.47
2023-12-23T02:51:46.952Z,96518.47
2023-12-23T02:54:13.431Z,96510.63
2023-12-23T02:56:39.976Z,96524.56
2023-12-23T02:59:06.571Z,96512.81
2023-12-23T03:01:32.907Z,96519.41
2023-12-23T03:03:59.340Z,96509.75
2023-12-23T03:06:26.169Z,96498.19
2023-12-23T03:08:52.529Z,96514.63
2023-12-23T03:11:19.189Z,96503.84
2023-12-23T03:13:45.635Z,96500.00
2023-12-23T03:16:18.765Z,96518.63
2023-12-23T03:18:45.891Z,96505.19
2023-12-23T03:21:12.404Z,96499.72
2023-12-23T03:23:38.789Z,96500.88
2023-12-23T03:26:06.831Z,96499.25
2023-12-23T03:28:33.197Z,96493.03
2023-12-23T03:30:59.552Z,96480.41
2023-12-23T03:33:26.025Z,96489.50
2023-12-23T03:35:52.424Z,96484.34
2023-12-23T03:38:18.860Z,96487.69
2023-12-23T03:40:45.361Z,96475.13
2023-12-23T03:43:11.693Z,96458.63
2023-12-23T03:45:39.883Z,96477.50
2023-12-23T03:48:07.743Z,96466.44
2023-12-23T03:50:34.088Z,96464.03
2023-12-23T03:53:00.523Z,96466.25
2023-12-23T03:55:32.664Z,96466.53
2023-12-23T03:58:00.085Z,96462.44
2023-12-23T04:00:27.628Z,96457.44
2023-12-23T04:02:54.516Z,96478.28
2023-12-23T04:05:21.056Z,96456.19
2023-12-23T04:07:51.207Z,96442.81
2023-12-23T04:10:18.557Z,96454.38
2023-12-23T04:12:45.000Z,96467.00
2023-12-23T04:15:11.375Z,96466.91
2023-12-23T04:17:40.167Z,96470.53
2023-12-23T04:20:10.346Z,96429.66
2023-12-23T04:22:36.801Z,96448.44
2023-12-23T04:25:04.463Z,96440.25
2023-12-23T04:27:31.053Z,96442.31
2023-12-23T04:29:57.458Z,96436.50
2023-12-23T04:32:23.882Z,96430.47
2023-12-23T04:34:50.471Z,96428.94
2023-12-23T04:37:16.823Z,96418.63
2023-12-23T04:39:43.146Z,96420.72
2023-12-23T04:42:09.581Z,96421.59
2023-12-23T04:44:35.909Z,96439.38
2023-12-23T04:47:02.345Z,96428.13
2023-12-23T04:49:28.692Z,96417.09
2023-12-23T04:51:55.015Z,96414.16
2023-12-23T04:54:21.363Z,96411.22
2023-12-23T04:56:47.702Z,96418.09
2023-12-23T04:59:14.093Z,96415.56
2023-12-23T05:01:40.502Z,96402.97
2023-12-23T05:04:06.832Z,96408.59
2023-12-23T05:06:33.211Z,96409.34
2023-12-23T05:08:59.546Z,96407.69
2023-12-23T05:11:25.939Z,96411.94
2023-12-23T05:13:52.314Z,96427.00
2023-12-23T05:16:18.686Z,96409.94
2023-12-23T05:18:45.314Z,96400.97
2023-12-23T05:21:11.714Z,96392.91
2023-12-23T05:23:38.058Z,96396.38
2023-12-23T05:26:04.550Z,96385.47
2023-12-23T05:28:30.961Z,96381.94
2023-12-23T05:30:57.459Z,96381.66
2023-12-23T05:33:25.794Z,96382.59
2023-12-23T05:35:52.719Z,96378.50
2023-12-23T05:38:19.290Z,96396.59
2023-12-23T05:40:45.985Z,96380.97
2023-12-23T05:43:12.392Z,96378.13
2023-12-23T05:45:38.717Z,96375.81
2023-12-23T05:48:05.821Z,96371.09
2023-12-23T05:50:32.335Z,96367.03
2023-12-23T05:52:58.738Z,96364.09
2023-12-23T05:55:25.109Z,96366.84
2023-12-23T05:57:51.449Z,96366.38
2023-12-23T06:00:20.681Z,96357.28
2023-12-23T06:02:47.232Z,96375.19
2023-12-23T06:05:13.746Z,96368.72
2023-12-23T06:07:40.131Z,96376.59
2023-12-23T06:10:07.325Z,96366.91
2023-12-23T06:12:33.672Z,96380.56
2023-12-23T06:15:00.019Z,96373.00
2023-12-23T06:17:27.107Z,96362.97
2023-12-23T06:19:53.634Z,96349.88
2023-12-23T06:22:20.038Z,96336.34
2023-12-23T06:24:46.436Z,96349.28
2023-12-23T06:27:13.292Z,96340.81
2023-12-23T06:29:39.659Z,96361.91
2023-12-23T06:32:06.266Z,96332.13
2023-12-23T06:34:32.605Z,96320.88
2023-12-23T06:36:58.946Z,96329.97
2023-12-23T06:39:25.375Z,96333.75
2023-12-23T06:41:51.713Z,96324.53
2023-12-23T06:44:18.092Z,96329.81
2023-12-23T06:46:44.834Z,96333.91
2023-12-23T06:49:11.498Z,96327.38
2023-12-23T06:51:37.932Z,96323.59
2023-12-23T06:54:04.265Z,96340.16
2023-12-23T06:56:30.607Z,96338.22
2023-12-23T06:58:57.017Z,96355.56
2023-12-23T07:01:23.539Z,96357.97
2023-12-23T07:03:49.927Z,96364.19
2023-12-23T07:06:16.307Z,96347.19
2023-12-23T07:08:42.731Z,96367.53
2023-12-23T07:11:12.320Z,96354.16
2023-12-23T07:13:38.739Z,96359.78
2023-12-23T07:16:05.780Z,96355.97
2023-12-23T07:18:32.238Z,96359.97
2023-12-23T07:20:58.718Z,96355.66
2023-12-23T07:23:25.126Z,96342.44
2023-12-23T07:25:51.519Z,96348.63
2023-12-23T07:28:17.887Z,96355.66
2023-12-23T07:30:46.478Z,96351.84
2023-12-23T07:33:14.366Z,96345.91
2023-12-23T07:35:40.847Z,96348.81
2023-12-23T07:38:07.413Z,96360.84
2023-12-23T07:40:36.177Z,96357.63
2023-12-23T07:43:03.488Z,96322.34
2023-12-23T07:45:29.881Z,96336.94
2023-12-23T07:47:56.281Z,96347.28
2023-12-23T07:50:24.019Z,96335.00
2023-12-23T07:52:50.729Z,96346.22
2023-12-23T07:55:17.247Z,96351.84
2023-12-23T07:57:43.853Z,96349.59
2023-12-23T08:00:10.829Z,96347.47
2023-12-23T08:02:37.184Z,96361.91
2023-12-23T08:05:05.774Z,96357.78
2023-12-23T08:07:33.148Z,96372.97
2023-12-23T08:09:59.543Z,96344.56
2023-12-23T08:12:25.920Z,96368.88
2023-12-23T08:14:52.276Z,96367.06
2023-12-23T08:17:18.693Z,96351.72
2023-12-23T08:19:45.130Z,96356.56
2023-12-23T08:22:11.498Z,96342.75
2023-12-23T08:24:37.828Z,96354.44
2023-12-23T08:27:04.346Z,96349.63
2023-12-23T08:29:30.734Z,96360.59
2023-12-23T08:31:57.140Z,96361.00
2023-12-23T08:34:23.671Z,96365.25
2023-12-23T08:36:50.436Z,96358.00
2023-12-23T08:39:16.785Z,96359.06
2023-12-23T08:41:43.140Z,96356.03
2023-12-23T08:44:09.564Z,96366.00
2023-12-23T08:46:35.992Z,96367.34
2023-12-23T08:49:02.577Z,96367.84
2023-12-23T08:51:32.760Z,96372.06
2023-12-23T08:53:59.198Z,96388.19
2023-12-23T08:56:25.562Z,96377.47
2023-12-23T08:58:51.964Z,96349.88
2023-12-23T09:01:18.449Z,96366.34
2023-12-23T09:03:44.860Z,96370.75
2023-12-23T09:06:13.510Z,96370.44
2023-12-23T09:08:40.230Z,96370.88
2023-12-23T09:11:06.708Z,96379.72
2023-12-23T09:13:33.072Z,96373.03
2023-12-23T09:16:02.376Z,96362.38
2023-12-23T09:18:28.822Z,96373.94
2023-12-23T09:20:55.181Z,96376.38
2023-12-23T09:23:21.543Z,96392.00
2023-12-23T09:25:47.902Z,96393.66
2023-12-23T09:28:15.011Z,96393.22
2023-12-23T09:30:41.374Z,96402.53
2023-12-23T09:33:07.959Z,96388.19
2023-12-23T09:35:34.468Z,96398.44
2023-12-23T09:38:00.877Z,96389.16
2023-12-23T09:40:27.326Z,96388.25
2023-12-23T09:42:53.829Z,96378.97
2023-12-23T09:45:22.120Z,96381.72
2023-12-23T09:47:49.275Z,96393.75
2023-12-23T09:50:16.047Z,96389.16
2023-12-23T09:52:42.671Z,96382.50
2023-12-23T09:55:10.767Z,96382.63
2023-12-23T09:57:37.699Z,96396.97
2023-12-23T10:00:04.847Z,96401.34
2023-12-23T10:02:31.239Z,96433.59
2023-12-23T10:04:57.695Z,96426.59
2023-12-23T10:07:24.113Z,96425.38
2023-12-23T10:09:51.148Z,96428.00
2023-12-23T10:12:18.013Z,96416.72
2023-12-23T10:14:45.072Z,96414.50
2023-12-23T10:17:11.905Z,96416.19
2023-12-23T10:19:38.270Z,96421.03
2023-12-23T10:22:05.433Z,96401.13
2023-12-23T10:24:31.840Z,96422.03
2023-12-23T10:26:59.967Z,96413.19
2023-12-23T10:29:31.466Z,96415.78
2023-12-23T10:32:05.641Z,96405.63
2023-12-23T10:34:44.005Z,96419.91
2023-12-23T10:37:14.146Z,96385.25
2023-12-23T10:39:50.025Z,96397.28
2023-12-23T10:42:21.218Z,96426.34
2023-12-23T10:44:49.395Z,96395.59
2023-12-23T10:47:16.721Z,96413.88
2023-12-23T10:49:46.296Z,96416.91
2023-12-23T10:52:14.676Z,96417.22
2023-12-23T10:54:41.124Z,96419.34
2023-12-23T10:57:09.031Z,96414.63
2023-12-23T10:59:35.569Z,96437.91
2023-12-23T11:02:13.612Z,96421.91
2023-12-23T11:04:42.503Z,96426.16
2023-12-23T11:07:12.452Z,96425.44
2023-12-23T11:09:40.585Z,96443.34
2023-12-23T11:12:07.674Z,96418.53
2023-12-23T11:14:34.061Z,96445.16
2023-12-23T11:17:00.549Z,96434.06
2023-12-23T11:19:26.961Z,96433.88
2023-12-23T11:22:23.350Z,96433.59
2023-12-23T11:24:49.731Z,96445.31
2023-12-23T11:27:36.161Z,96454.47
2023-12-23T11:30:07.406Z,96449.59
2023-12-23T11:32:38.404Z,96447.50
2023-12-23T11:35:06.668Z,96428.00
2023-12-23T11:37:54.439Z,96438.22
2023-12-23T11:40:22.307Z,96407.78
2023-12-23T11:42:50.527Z,96415.41
2023-12-23T11:45:17.790Z,96414.81
2023-12-23T11:47:44.220Z,96420.13
2023-12-23T11:50:11.267Z,96395.81
2023-12-23T11:52:37.787Z,96424.09
2023-12-23T11:55:04.876Z,96418.19
2023-12-23T11:57:32.643Z,96416.66
2023-12-23T12:00:00.318Z,96409.34
2023-12-23T12:02:27.166Z,96413.00
2023-12-23T12:04:53.846Z,96410.59
2023-12-23T12:07:21.646Z,96405.25
2023-12-23T12:09:47.991Z,96413.91
2023-12-23T12:12:14.452Z,96420.63
2023-12-23T12:14:41.584Z,96415.31
2023-12-23T12:17:10.173Z,96422.63
2023-12-23T12:19:36.842Z,96419.72
2023-12-23T12:22:04.636Z,96404.34
2023-12-23T12:24:31.529Z,96417.28
2023-12-23T12:26:58.100Z,96390.94
2023-12-23T12:29:25.229Z,96399.00
2023-12-23T12:31:52.522Z,96401.47
2023-12-23T12:34:19.729Z,96405.09
2023-12-23T12:36:46.185Z,96404.34
2023-12-23T12:39:14.774Z,96404.19
2023-12-23T12:41:43.893Z,96404.66
2023-12-23T12:44:10.300Z,96403.88
2023-12-23T12:46:37.148Z,96374.53
2023-12-23T12:49:05.990Z,96375.88
2023-12-23T12:51:33.527Z,96374.22
2023-12-23T12:54:00.777Z,96388.25
2023-12-23T12:56:27.191Z,96386.09
2023-12-23T12:58:53.804Z,96384.44
2023-12-23T13:01:21.905Z,96376.34
2023-12-23T13:03:48.909Z,96393.88
2023-12-23T13:06:15.496Z,96390.06
2023-12-23T13:08:41.875Z,96400.72
2023-12-23T13:11:08.730Z,96420.66
2023-12-23T13:13:35.136Z,96414.13
2023-12-23T13:16:03.726Z,96419.28
2023-12-23T13:18:32.822Z,96420.22
2023-12-23T13:21:00.508Z,96425.38
2023-12-23T13:23:27.299Z,96430.41
2023-12-23T13:25:53.676Z,96433.16
2023-12-23T13:28:20.246Z,96460.41
2023-12-23T13:30:46.636Z,96447.47
2023-12-23T13:33:13.022Z,96449.31
2023-12-23T13:35:40.389Z,96464.81
2023-12-23T13:38:06.793Z,96448.53
2023-12-23T13:40:33.812Z,96458.28
2023-12-23T13:43:00.170Z,96464.41
2023-12-23T13:45:26.515Z,96483.41
2023-12-23T13:47:53.888Z,96456.75
2023-12-23T13:50:20.652Z,96473.66
2023-12-23T13:52:47.181Z,96477.59
2023-12-23T13:55:13.570Z,96488.06
2023-12-23T13:57:39.895Z,96485.66
2023-12-23T14:00:07.762Z,96498.59
2023-12-23T14:02:34.098Z,96483.94
2023-12-23T14:05:00.483Z,96517.75
2023-12-23T14:07:26.864Z,96503.28
2023-12-23T14:09:53.225Z,96489.28
2023-12-23T14:12:19.637Z,96507.03
2023-12-23T14:14:46.536Z,96517.06
2023-12-23T14:17:12.990Z,96502.59
2023-12-23T14:19:39.377Z,96520.56
2023-12-23T14:22:08.560Z,96520.25
2023-12-23T14:24:35.018Z,96521.16
2023-12-23T14:27:01.834Z,96534.53
2023-12-23T14:29:28.254Z,96530.13
2023-12-23T14:31:54.588Z,96539.44
2023-12-23T14:34:20.955Z,96534.25
2023-12-23T14:36:49.593Z,96538.47
2023-12-23T14:39:21.268Z,96541.38
2023-12-23T14:41:49.090Z,96551.69
2023-12-23T14:44:15.532Z,96564.28
2023-12-23T14:46:43.108Z,96559.75
2023-12-23T14:49:10.303Z,96560.72
2023-12-23T14:51:37.421Z,96565.75
2023-12-23T14:54:03.794Z,96563.72
2023-12-23T14:56:30.346Z,96575.41
2023-12-23T14:58:56.791Z,96565.66
2023-12-23T15:01:23.169Z,96560.06
2023-12-23T15:03:52.606Z,96564.00
2023-12-23T15:06:19.821Z,96573.28
2023-12-23T15:08:46.318Z,96578.25
2023-12-23T15:11:12.695Z,96580.81
2023-12-23T15:13:41.254Z,96595.00
2023-12-23T15:16:09.344Z,96596.34
2023-12-23T15:18:36.225Z,96607.66
2023-12-23T15:21:03.116Z,96614.06
2023-12-23T15:23:29.523Z,96606.56
2023-12-23T15:25:55.948Z,96607.44
2023-12-23T15:28:22.272Z,96612.44
2023-12-23T15:30:48.748Z,96618.25
2023-12-23T15:33:15.656Z,96620.97
2023-12-23T15:35:42.113Z,96625.19
2023-12-23T15:38:08.522Z,96627.38
2023-12-23T15:40:34.901Z,96629.78
2023-12-23T15:43:01.231Z,96636.94
2023-12-23T15:45:27.565Z,96642.22
2023-12-23T15:47:54.010Z,96643.84
2023-12-23T15:50:20.610Z,96644.34
2023-12-23T15:52:47.064Z,96651.81
2023-12-23T15:55:13.786Z,96644.34
2023-12-23T15:57:40.119Z,96643.84
2023-12-23T16:00:07.334Z,96638.66
2023-12-23T16:02:33.786Z,96635.47
2023-12-23T16:05:00.417Z,96640.34
2023-12-23T16:07:28.011Z,96644.94
2023-12-23T16:09:54.485Z,96648.56
2023-12-23T16:12:20.889Z,96647.22
2023-12-23T16:14:47.268Z,96642.53
2023-12-23T16:17:13.718Z,96653.63
2023-12-23T16:19:40.101Z,96654.03
2023-12-23T16:22:06.445Z,96649.81
2023-12-23T16:24:33.097Z,96649.69
2023-12-23T16:26:59.707Z,96649.81
2023-12-23T16:29:26.295Z,96647.44
2023-12-23T16:31:52.851Z,96651.38
2023-12-23T16:34:19.572Z,96656.63
2023-12-23T16:36:46.443Z,96667.31
2023-12-23T16:39:12.867Z,96672.00
2023-12-23T16:41:39.202Z,96682.22
2023-12-23T16:44:06.358Z,96677.75
2023-12-23T16:46:32.752Z,96706.94
2023-12-23T16:48:59.248Z,96699.19
2023-12-23T16:51:25.639Z,96699.78
2023-12-23T16:53:52.060Z,96707.59
2023-12-23T16:56:18.414Z,96707.63
2023-12-23T16:58:44.787Z,96701.47
2023-12-23T17:01:13.513Z,96708.63
2023-12-23T17:03:40.267Z,96693.44
2023-12-23T17:06:07.273Z,96711.22
2023-12-23T17:08:33.754Z,96698.22
2023-12-23T17:11:00.139Z,96706.06
2023-12-23T17:13:26.669Z,96697.53
2023-12-23T17:15:53.041Z,96703.53
2023-12-23T17:18:19.383Z,96703.94
2023-12-23T17:20:45.807Z,96689.13
2023-12-23T17:23:12.357Z,96697.72
2023-12-23T17:25:38.812Z,96678.00
2023-12-23T17:28:10.298Z,96686.84
2023-12-23T17:30:38.330Z,96704.78
2023-12-23T17:33:05.775Z,96710.84
2023-12-23T17:35:32.231Z,96708.25
2023-12-23T17:38:00.435Z,96707.00
2023-12-23T17:40:26.903Z,96717.34
2023-12-23T17:42:53.454Z,96722.22
2023-12-23T17:45:20.014Z,96724.03
2023-12-23T17:47:46.448Z,96730.56
2023-12-23T17:50:14.227Z,96734.38
2023-12-23T17:52:40.609Z,96747.91
2023-12-23T17:55:07.215Z,96741.38
2023-12-23T17:57:33.576Z,96741.09
2023-12-23T17:59:59.895Z,96744.75
2023-12-23T18:02:29.495Z,96747.19
2023-12-23T18:04:56.636Z,96741.59
2023-12-23T18:07:23.097Z,96736.53
2023-12-23T18:09:49.439Z,96748.41
2023-12-23T18:12:15.764Z,96740.56
2023-12-23T18:14:42.093Z,96745.66
2023-12-23T18:17:08.434Z,96748.53
2023-12-23T18:19:34.787Z,96737.31
2023-12-23T18:22:02.801Z,96737.13
2023-12-23T18:24:29.419Z,96733.09
2023-12-23T18:26:55.764Z,96736.19
2023-12-23T18:29:22.127Z,96734.88
2023-12-23T18:31:48.661Z,96738.34
2023-12-23T18:34:15.213Z,96730.25
2023-12-23T18:36:41.710Z,96732.25
2023-12-23T18:39:08.081Z,96737.69
2023-12-23T18:41:34.512Z,96733.88
2023-12-23T18:44:01.812Z,96743.63
2023-12-23T18:46:28.863Z,96741.81
2023-12-23T18:48:55.277Z,96739.22
2023-12-23T18:51:21.630Z,96740.72
2023-12-23T18:53:48.002Z,96727.25
2023-12-23T18:56:17.044Z,96729.44
2023-12-23T18:58:43.765Z,96740.81
2023-12-23T19:01:10.128Z,96743.78
2023-12-23T19:03:36.554Z,96733.56
2023-12-23T19:06:04.136Z,96740.44
2023-12-23T19:08:30.550Z,96752.94
2023-12-23T19:10:58.407Z,96750.69
2023-12-23T19:13:25.676Z,96754.19
2023-12-23T19:15:52.023Z,96751.31
2023-12-23T19:18:18.531Z,96748.75
2023-12-23T19:20:45.082Z,96753.16
2023-12-23T19:23:11.468Z,96749.41
2023-12-23T19:25:37.879Z,96743.84
2023-12-23T19:28:05.617Z,96751.41
2023-12-23T19:30:32.188Z,96740.97
2023-12-23T19:32:58.738Z,96749.50
2023-12-23T19:35:25.208Z,96746.03
2023-12-23T19:37:52.756Z,96747.09
2023-12-23T19:40:19.177Z,96744.16
2023-12-23T19:42:45.495Z,96751.22
2023-12-23T19:45:14.477Z,96728.78
2023-12-23T19:47:41.836Z,96746.13
2023-12-23T19:50:08.413Z,96747.47
2023-12-23T19:52:34.782Z,96760.09
2023-12-23T19:55:01.141Z,96745.53
2023-12-23T19:57:27.517Z,96755.09
2023-12-23T19:59:53.899Z,96759.06
2023-12-23T20:02:20.440Z,96739.75
2023-12-23T20:04:46.821Z,96744.69
2023-12-23T20:07:13.393Z,96749.78
2023-12-23T20:09:39.871Z,96734.13
2023-12-23T20:12:07.801Z,96729.97
2023-12-23T20:14:35.721Z,96742.41
2023-12-23T20:17:02.251Z,96742.22
2023-12-23T20:19:28.708Z,96742.28
2023-12-23T20:21:55.785Z,96749.75
2023-12-23T20:24:23.040Z,96743.00
2023-12-23T20:26:49.785Z,96748.50
2023-12-23T20:29:16.195Z,96738.97
2023-12-23T20:31:42.663Z,96752.09
2023-12-23T20:34:10.418Z,96740.31
2023-12-23T20:36:44.414Z,96727.97
2023-12-23T20:39:10.930Z,96738.22
2023-12-23T20:41:40.552Z,96725.41
2023-12-23T20:44:08.659Z,96714.84
2023-12-23T20:46:35.088Z,96731.03
2023-12-23T20:49:01.471Z,96729.03
2023-12-23T20:51:27.864Z,96734.50
2023-12-23T20:53:54.196Z,96730.28
2023-12-23T20:56:22.552Z,96736.09
2023-12-23T20:58:48.998Z,96738.41
2023-12-23T21:01:23.624Z,96744.25
2023-12-23T21:03:54.456Z,96738.09
2023-12-23T21:06:21.110Z,96731.88
2023-12-23T21:08:49.216Z,96728.09
2023-12-23T21:11:17.292Z,96742.81
2023-12-23T21:13:44.412Z,96734.84
2023-12-23T21:16:11.363Z,96728.44
2023-12-23T21:18:43.029Z,96729.69
2023-12-23T21:21:11.485Z,96726.63
2023-12-23T21:23:37.925Z,96727.69
2023-12-23T21:26:04.420Z,96728.06
2023-12-23T21:28:30.746Z,96719.06
2023-12-23T21:30:57.748Z,96726.03
2023-12-23T21:33:24.640Z,96726.34
2023-12-23T21:35:51.974Z,96728.31
2023-12-23T21:38:21.312Z,96731.41
2023-12-23T21:40:51.401Z,96722.88
2023-12-23T21:43:17.832Z,96733.00
2023-12-23T21:45:44.583Z,96723.22
2023-12-23T21:48:10.963Z,96735.03
2023-12-23T21:50:37.453Z,96729.47
2023-12-23T21:53:05.194Z,96741.06
2023-12-23T21:55:31.655Z,96719.22
2023-12-23T21:57:58.073Z,96720.94
2023-12-23T22:00:24.439Z,96726.13
2023-12-23T22:02:51.161Z,96731.53
2023-12-23T22:05:17.944Z,96726.19
2023-12-23T22:07:44.346Z,96741.19
2023-12-23T22:10:11.729Z,96750.09
2023-12-23T22:12:38.102Z,96748.75
2023-12-23T22:15:04.761Z,96740.91
2023-12-23T22:17:31.158Z,96737.84
2023-12-23T22:19:57.664Z,96728.97
2023-12-23T22:22:24.099Z,96741.81
2023-12-23T22:24:52.170Z,96748.13
2023-12-23T22:27:18.517Z,96733.75
2023-12-23T22:29:45.114Z,96740.16
2023-12-23T22:32:11.465Z,96736.28
2023-12-23T22:34:37.812Z,96738.22
2023-12-23T22:37:04.803Z,96740.69
2023-12-23T22:39:31.188Z,96753.41
2023-12-23T22:41:57.555Z,96745.78
2023-12-23T22:44:24.546Z,96742.50
2023-12-23T22:46:51.024Z,96743.44
2023-12-23T22:49:18.246Z,96756.38
2023-12-23T22:51:44.585Z,96747.69
2023-12-23T22:54:10.915Z,96757.72
2023-12-23T22:56:41.181Z,96752.28
2023-12-23T22:59:08.053Z,96741.66
2023-12-23T23:01:34.545Z,96740.97
2023-12-23T23:04:00.914Z,96744.78
2023-12-23T23:06:27.343Z,96751.13
2023-12-23T23:08:53.752Z,96737.13
2023-12-23T23:11:20.270Z,96747.53
2023-12-23T23:13:46.625Z,96752.81
2023-12-23T23:16:12.947Z,96736.06
2023-12-23T23:18:42.394Z,96727.94
2023-12-23T23:21:09.040Z,96730.97
2023-12-23T23:23:36.004Z,96730.78
2023-12-23T23:26:02.416Z,96728.91
2023-12-23T23:28:28.759Z,96736.25
2023-12-23T23:30:55.886Z,96725.25
2023-12-23T23:33:22.299Z,96729.56
2023-12-23T23:35:49.402Z,96718.44
2023-12-23T23:38:15.940Z,96716.31
2023-12-23T23:40:42.387Z,96707.78
2023-12-23T23:43:08.722Z,96706.56
2023-12-23T23:45:35.058Z,96716.69
2023-12-23T23:48:01.406Z,96724.50
2023-12-23T23:50:27.780Z,96726.34
2023-12-23T23:52:54.306Z,96738.09
2023-12-23T23:55:20.770Z,96732.75
2023-12-23T23:57:47.116Z,96728.25
